Time;durP1;ratioP1;P1;durP2;ratioP2;P2;SDS_P1;SDS_P2;PMS_P1;PMS_P2;Temp;Humidity;BMP_temperature;BMP_pressure;BME280_temperature;BME280_humidity;BME280_pressure;Samples;Min_cycle;Max_cycle;Signal;HPM_P1;HPM_P2
2024/03/31 00:01:12;;;;;;;22.57;5.10;;;10.40;75.10;;;9.71;75.78;96212.09;5039988;28;20990;-80
2024/03/31 00:03:40;;;;;;;22.97;5.53;;;10.30;75.50;;;9.53;76.77;96199.75;5042730;28;20492;-80
2024/03/31 00:06:07;;;;;;;19.10;5.70;;;10.20;75.70;;;9.46;77.38;96201.81;5049191;28;20524;-79
2024/03/31 00:08:33;;;;;;;28.27;6.40;;;10.20;76.20;;;9.45;77.91;96194.81;5044903;28;20470;-80
2024/03/31 00:11:01;;;;;;;26.30;6.43;;;10.10;76.60;;;9.46;78.26;96182.94;5054149;28;20479;-79
2024/03/31 00:13:29;;;;;;;15.33;5.27;;;10.10;77.00;;;9.47;78.57;96168.41;5033989;28;20473;-79
2024/03/31 00:15:56;;;;;;;24.00;5.97;;;10.10;77.40;;;9.72;77.06;96172.44;5045844;28;20497;-80
2024/03/31 00:18:22;;;;;;;23.83;6.10;;;10.20;77.10;;;9.56;77.72;96174.97;5029760;28;20491;-80
2024/03/31 00:20:54;;;;;;;19.97;6.30;;;10.20;77.00;;;9.45;77.85;96178.63;5045870;28;20491;-79
2024/03/31 00:23:20;;;;;;;25.73;6.40;;;10.10;77.20;;;9.29;79.04;96185.75;5037399;28;20476;-80
2024/03/31 00:25:56;;;;;;;22.47;5.83;;;10.00;77.70;;;9.35;79.10;96182.03;5031212;28;20471;-80
2024/03/31 00:28:22;;;;;;;17.20;5.00;;;9.90;79.00;;;9.32;79.62;96182.53;5030044;28;20485;-80
2024/03/31 00:30:59;;;;;;;24.60;6.00;;;9.90;79.20;;;9.28;79.12;96141.81;5034860;28;20508;-80
2024/03/31 00:33:25;;;;;;;22.10;7.00;;;10.00;78.40;;;9.54;77.51;96155.56;5029282;28;20549;-80
2024/03/31 00:35:55;;;;;;;20.47;6.60;;;10.10;78.00;;;9.63;77.26;96154.03;5044428;28;20620;-79
2024/03/31 00:38:21;;;;;;;23.13;6.00;;;10.20;78.10;;;9.65;78.10;96175.34;5025551;28;20483;-81
2024/03/31 00:40:49;;;;;;;22.93;6.33;;;10.30;77.90;;;9.34;79.19;96150.75;5028706;28;20482;-79
2024/03/31 00:43:15;;;;;;;25.13;6.97;;;10.10;78.00;;;9.37;80.10;96163.72;5028793;28;20532;-80
2024/03/31 00:45:43;;;;;;;23.03;6.50;;;10.00;78.70;;;9.28;80.03;96155.28;5044564;28;20993;-79
2024/03/31 00:48:11;;;;;;;27.00;8.50;;;9.90;80.00;;;9.18;79.98;96139.00;5043906;28;20492;-79
2024/03/31 00:50:38;;;;;;;22.27;7.50;;;9.90;80.20;;;9.09;80.94;96135.13;5034791;28;20469;-80
2024/03/31 00:53:05;;;;;;;28.47;6.87;;;9.80;80.40;;;8.97;81.40;96129.88;5027206;28;20478;-79
2024/03/31 00:55:32;;;;;;;24.37;6.73;;;9.70;80.60;;;8.90;82.23;96146.22;5027402;28;20481;-80
2024/03/31 00:57:58;;;;;;;21.00;7.27;;;9.60;81.10;;;8.89;82.61;96171.53;5027589;28;20547;-79
2024/03/31 01:00:26;;;;;;;20.57;6.70;;;9.50;81.50;;;8.87;83.23;96168.25;5035715;28;20521;-81
2024/03/31 01:02:52;;;;;;;18.27;6.70;;;9.50;81.80;;;8.97;82.83;96162.19;5045221;28;20482;-81
2024/03/31 01:05:20;;;;;;;22.60;6.07;;;9.50;82.20;;;9.31;81.54;96172.81;5041540;28;20470;-80
2024/03/31 01:07:47;;;;;;;15.23;6.50;;;9.70;82.00;;;9.26;81.30;96178.97;5031951;28;20477;-79
2024/03/31 01:10:15;;;;;;;29.00;6.40;;;9.80;81.60;;;9.11;81.52;96160.75;5025774;28;20971;-79
2024/03/31 01:12:42;;;;;;;21.03;6.47;;;9.80;81.50;;;9.17;81.67;96164.31;5026374;28;20479;-80
2024/03/31 01:15:10;;;;;;;21.10;7.27;;;9.70;81.90;;;9.22;81.85;96175.16;5038832;28;20843;-80
2024/03/31 01:17:36;;;;;;;22.33;6.70;;;9.80;81.90;;;9.19;82.06;96154.13;5035930;28;20478;-80
2024/03/31 01:20:05;;;;;;;26.30;7.27;;;9.80;82.40;;;8.84;82.43;96106.81;5043326;28;20465;-79
2024/03/31 01:22:35;;;;;;;28.77;6.33;;;9.70;82.10;;;9.21;82.30;96184.31;5035946;28;20501;-80
2024/03/31 01:25:03;;;;;;;31.90;7.00;;;9.60;82.60;;;9.32;82.19;96186.03;5027633;28;20481;-80
2024/03/31 01:27:30;;;;;;;20.17;6.53;;;9.70;83.00;;;9.21;82.49;96168.16;5030117;28;20524;-80
2024/03/31 01:29:57;;;;;;;36.60;8.43;;;9.70;82.90;;;9.33;82.48;96190.38;5028976;28;20498;-80
2024/03/31 01:32:23;;;;;;;31.27;8.63;;;9.70;83.00;;;9.41;81.26;96172.13;5041746;28;20483;-80
2024/03/31 01:34:51;;;;;;;23.50;7.53;;;9.80;82.90;;;9.31;81.89;96168.25;5047265;28;20488;-79
2024/03/31 01:37:17;;;;;;;24.43;7.23;;;9.80;82.70;;;9.27;82.18;96159.03;5054334;28;20470;-80
2024/03/31 01:39:44;;;;;;;25.30;7.33;;;9.80;82.80;;;9.17;82.50;96173.22;5030349;28;20500;-79
2024/03/31 01:42:12;;;;;;;28.77;7.13;;;9.70;82.90;;;8.92;84.07;96176.41;5042610;28;20488;-79
2024/03/31 01:44:39;;;;;;;17.27;7.00;;;9.70;83.20;;;9.06;83.96;96188.44;5033406;28;20984;-80
2024/03/31 01:47:05;;;;;;;25.97;6.87;;;9.70;83.40;;;9.11;84.48;96200.34;5030344;28;20465;-80
2024/03/31 01:49:33;;;;;;;28.83;8.40;;;9.70;83.60;;;9.16;83.96;96200.41;5033625;28;20478;-81
2024/03/31 01:51:59;;;;;;;26.93;8.57;;;9.80;83.80;;;9.23;84.39;96198.34;5031748;28;20474;-81
2024/03/31 01:54:26;;;;;;;23.03;7.30;;;9.80;83.70;;;9.21;83.75;96190.50;5026284;28;20467;-78
2024/03/31 01:56:52;;;;;;;26.57;8.10;;;9.90;83.20;;;9.03;83.81;96196.22;5039095;28;20474;-79
2024/03/31 01:59:21;;;;;;;24.20;8.33;;;9.90;83.40;;;9.21;84.49;96222.03;5026365;28;20529;-80
2024/03/31 02:01:47;;;;;;;26.97;7.80;;;9.90;83.60;;;9.18;84.46;96217.16;5044978;28;20473;-80
2024/03/31 02:04:14;;;;;;;24.03;7.77;;;9.90;83.40;;;9.21;84.32;96216.66;5043312;28;20899;-81
2024/03/31 02:06:42;;;;;;;27.23;7.93;;;9.90;83.70;;;9.23;83.70;96209.13;5046494;28;20543;-79
2024/03/31 02:09:09;;;;;;;21.93;6.90;;;9.90;83.70;;;9.31;83.75;96222.13;5034452;28;20477;-79
2024/03/31 02:11:36;;;;;;;25.27;7.00;;;10.00;82.40;;;9.31;82.43;96243.69;5031316;28;20478;-79
2024/03/31 02:14:03;;;;;;;20.30;7.13;;;10.00;81.80;;;9.40;81.39;96254.06;5029451;28;20502;-80
2024/03/31 02:16:30;;;;;;;20.67;6.47;;;10.00;81.30;;;9.38;80.45;96254.28;5026608;28;20992;-80
2024/03/31 02:18:58;;;;;;;26.00;6.30;;;10.00;81.10;;;9.38;80.45;96264.28;5028639;28;20486;-79
2024/03/31 02:21:24;;;;;;;23.40;6.03;;;10.10;80.90;;;9.57;80.00;96268.28;5026042;28;20473;-80
2024/03/31 02:23:51;;;;;;;23.07;5.70;;;10.10;80.90;;;9.57;79.92;96262.88;5026720;28;20469;-81
2024/03/31 02:26:19;;;;;;;27.40;6.37;;;10.10;80.90;;;9.52;80.31;96268.22;5027006;28;20478;-79
2024/03/31 02:28:46;;;;;;;20.50;5.80;;;10.00;81.10;;;9.38;80.95;96278.56;5024893;28;20488;-80
2024/03/31 02:31:12;;;;;;;20.00;5.67;;;10.00;81.20;;;9.47;81.09;96273.53;5025687;28;20470;-79
2024/03/31 02:33:41;;;;;;;19.77;5.80;;;10.00;81.20;;;9.42;80.79;96281.56;5035935;28;21001;-79
2024/03/31 02:36:07;;;;;;;18.47;4.67;;;9.90;82.20;;;9.47;80.97;96284.31;5043146;28;20535;-79
2024/03/31 02:38:35;;;;;;;19.33;5.50;;;9.90;82.50;;;9.52;80.77;96292.50;5043786;28;20545;-79
2024/03/31 02:41:01;;;;;;;21.10;5.53;;;9.90;82.50;;;9.53;80.02;96296.81;5049239;28;20494;-79
2024/03/31 02:43:28;;;;;;;22.27;5.70;;;9.90;82.40;;;8.92;79.78;96212.22;5045340;28;21120;-80
2024/03/31 02:45:54;;;;;;;17.70;5.00;;;9.90;82.30;;;9.15;81.64;96293.06;5045541;28;20478;-78
2024/03/31 02:48:22;;;;;;;27.20;5.30;;;9.90;82.40;;;9.16;82.06;96297.41;5044074;28;20970;-79
2024/03/31 02:50:51;;;;;;;23.83;5.33;;;9.90;82.30;;;9.05;82.54;96277.59;5048689;28;20483;-79
2024/03/31 02:53:18;;;;;;;14.17;4.97;;;9.90;82.50;;;9.13;82.14;96284.44;5044282;28;20484;-79
2024/03/31 02:55:45;;;;;;;19.13;6.10;;;9.80;82.50;;;9.20;81.04;96277.00;5049385;28;20962;-80
2024/03/31 02:58:12;;;;;;;24.00;6.30;;;9.90;82.40;;;9.25;81.74;96300.47;5047860;28;21001;-80
2024/03/31 03:00:39;;;;;;;22.57;5.63;;;9.90;82.40;;;9.31;81.43;96286.81;5049356;28;20481;-80
2024/03/31 03:03:06;;;;;;;18.63;5.50;;;9.90;82.50;;;8.89;81.33;96241.56;5048082;28;20492;-80
2024/03/31 03:05:32;;;;;;;21.97;5.43;;;9.90;82.90;;;8.81;82.33;96228.50;5049003;28;20992;-80
2024/03/31 03:08:01;;;;;;;18.60;5.33;;;9.90;82.60;;;9.09;82.08;96284.09;5047460;28;20477;-79
2024/03/31 03:10:27;;;;;;;13.40;4.87;;;9.90;82.30;;;9.04;82.67;96284.88;5048421;28;20579;-79
2024/03/31 03:12:55;;;;;;;23.63;4.77;;;9.80;82.50;;;9.19;81.51;96270.78;5047693;28;20486;-81
2024/03/31 03:15:21;;;;;;;20.13;4.90;;;9.90;82.40;;;9.23;82.28;96265.72;5052939;28;20461;-81
2024/03/31 03:17:50;;;;;;;25.50;5.00;;;9.90;82.30;;;9.17;82.05;96253.22;5048867;28;20479;-79
2024/03/31 03:20:18;;;;;;;17.50;4.67;;;9.90;82.40;;;9.02;81.79;96219.66;5064874;28;20535;-80
2024/03/31 03:22:46;;;;;;;18.30;5.60;;;9.90;82.20;;;9.03;82.01;96197.03;5046554;28;20571;-80
2024/03/31 03:25:14;;;;;;;20.57;5.53;;;9.90;82.40;;;9.13;82.06;96173.97;5046096;28;20484;-80
2024/03/31 03:27:41;;;;;;;15.50;4.77;;;9.90;82.30;;;9.16;81.61;96197.69;5050091;28;21004;-80
2024/03/31 03:30:09;;;;;;;22.10;5.20;;;9.90;82.30;;;9.19;82.49;96226.88;5046477;28;20469;-80
2024/03/31 03:32:37;;;;;;;22.00;5.93;;;9.80;82.40;;;9.15;82.41;96202.28;5049187;28;20481;-80
2024/03/31 03:35:04;;;;;;;23.20;6.20;;;9.90;82.70;;;9.20;82.29;96182.69;5046681;28;20930;-80
2024/03/31 03:37:31;;;;;;;18.17;4.90;;;9.90;82.50;;;9.20;82.89;96193.47;5050241;28;21006;-80
2024/03/31 03:39:58;;;;;;;24.30;5.57;;;9.90;82.60;;;8.93;83.47;96188.81;5048746;28;20507;-80
2024/03/31 03:42:27;;;;;;;20.57;6.50;;;9.70;82.70;;;8.92;83.45;96184.50;5048846;28;20466;-79
2024/03/31 03:44:54;;;;;;;16.30;5.00;;;9.70;83.10;;;9.04;83.33;96184.38;5047842;28;20465;-80
2024/03/31 03:47:20;;;;;;;16.87;4.83;;;9.70;83.10;;;9.04;82.84;96168.19;5053346;28;20461;-79
2024/03/31 03:49:49;;;;;;;20.67;4.57;;;9.80;82.90;;;8.65;84.13;96115.22;5047504;28;21353;-79
2024/03/31 03:52:15;;;;;;;17.00;4.90;;;9.70;83.10;;;8.92;83.30;96149.47;5048584;28;20547;-79
2024/03/31 03:54:44;;;;;;;19.23;4.77;;;9.80;83.00;;;8.91;83.83;96159.44;5043303;28;20567;-80
2024/03/31 03:57:11;;;;;;;20.97;4.40;;;9.70;83.00;;;8.88;83.85;96153.75;5037790;28;20539;-80
2024/03/31 03:59:39;;;;;;;20.50;5.40;;;9.60;83.30;;;8.82;84.49;96138.56;5038220;28;21323;-79
2024/03/31 04:02:07;;;;;;;21.53;5.60;;;9.70;83.40;;;8.84;84.42;96152.59;5032278;28;20491;-79
2024/03/31 04:04:34;;;;;;;15.03;4.97;;;9.70;83.40;;;8.74;84.52;96172.97;5028568;28;20470;-80
2024/03/31 04:07:01;;;;;;;29.40;6.70;;;9.60;83.30;;;8.46;85.30;96137.00;5032369;28;21036;-80
2024/03/31 04:09:29;;;;;;;18.10;5.27;;;9.50;83.70;;;8.74;84.89;96199.88;5038167;28;20470;-79
2024/03/31 04:11:55;;;;;;;19.47;5.23;;;9.50;83.80;;;8.66;85.34;96200.28;5036967;28;20469;-79
2024/03/31 04:14:23;;;;;;;23.10;5.93;;;9.50;84.20;;;8.65;86.22;96204.06;5034633;28;20478;-79
2024/03/31 04:16:50;;;;;;;20.80;4.60;;;9.40;84.10;;;8.57;85.63;96199.06;5035472;28;20474;-79
2024/03/31 04:19:18;;;;;;;22.47;7.97;;;9.30;84.60;;;8.43;86.00;96185.97;5044166;28;20697;-80
2024/03/31 04:21:44;;;;;;;15.23;5.73;;;9.30;84.50;;;8.49;86.20;96201.09;5042406;28;20482;-79
2024/03/31 04:24:11;;;;;;;16.93;5.80;;;9.20;84.60;;;8.55;86.55;96193.97;5035087;28;20477;-80
2024/03/31 04:26:38;;;;;;;21.50;5.80;;;9.20;85.20;;;8.48;86.27;96194.09;5028747;28;20548;-79
2024/03/31 04:29:05;;;;;;;24.70;5.50;;;9.20;84.90;;;8.29;87.12;96176.59;5032508;28;20483;-80
2024/03/31 04:31:31;;;;;;;23.13;5.03;;;9.10;85.20;;;8.18;87.84;96195.25;5033327;28;20474;-80
2024/03/31 04:34:00;;;;;;;15.33;5.63;;;8.90;85.40;;;8.09;88.59;96191.34;5027301;28;20477;-80
2024/03/31 04:36:26;;;;;;;21.17;5.00;;;8.80;86.00;;;8.01;89.39;96181.00;5034554;28;20466;-80
2024/03/31 04:38:53;;;;;;;19.30;5.30;;;8.70;87.10;;;8.10;88.82;96181.41;5028879;28;20466;-81
2024/03/31 04:41:19;;;;;;;19.20;4.73;;;8.70;87.20;;;7.97;89.69;96193.31;5047476;28;21048;-79
2024/03/31 04:43:47;;;;;;;19.10;6.30;;;8.70;86.90;;;7.63;90.17;96181.44;5031909;28;20470;-78
2024/03/31 04:46:13;;;;;;;22.83;6.13;;;8.50;86.80;;;7.64;91.72;96209.94;5039329;28;20496;-79
2024/03/31 04:48:40;;;;;;;20.40;5.30;;;8.30;88.30;;;7.67;91.69;96189.03;5046442;28;20993;-81
2024/03/31 04:51:08;;;;;;;23.30;6.20;;;8.40;88.70;;;7.39;93.60;96204.09;5035651;28;20473;-79
2024/03/31 04:53:37;;;;;;;23.03;6.57;;;8.20;89.50;;;7.44;94.38;96212.25;5031349;28;20536;-80
2024/03/31 04:56:05;;;;;;;20.00;5.70;;;8.10;90.50;;;7.42;94.46;96203.63;5034763;28;20960;-80
2024/03/31 04:58:33;;;;;;;25.90;6.50;;;8.10;90.60;;;7.37;94.60;96201.66;5046187;28;20478;-80
2024/03/31 05:00:59;;;;;;;11.27;5.10;;;8.00;91.00;;;7.30;94.98;96200.97;5029192;28;21065;-79
2024/03/31 05:03:27;;;;;;;21.77;6.40;;;8.00;91.10;;;6.94;96.06;96168.84;5032884;28;20489;-79
2024/03/31 05:05:53;;;;;;;20.47;5.60;;;7.90;91.60;;;7.27;94.38;96159.28;5028949;28;21029;-79
2024/03/31 05:08:22;;;;;;;17.00;5.57;;;8.00;92.00;;;7.58;93.19;96216.28;5026054;28;20477;-80
2024/03/31 05:10:56;;;;;;;24.03;5.77;;;8.10;91.20;;;7.46;93.81;96220.88;5036468;28;20469;-80
2024/03/31 05:13:27;;;;;;;22.07;5.30;;;8.10;91.10;;;7.37;94.54;96223.97;5027245;28;20477;-80
2024/03/31 05:15:58;;;;;;;17.10;5.20;;;8.10;91.00;;;7.17;95.02;96216.31;5028192;28;20467;-79
2024/03/31 05:18:26;;;;;;;19.10;5.50;;;7.90;91.20;;;7.15;96.41;96225.66;5030338;28;20583;-79
2024/03/31 05:20:57;;;;;;;16.77;5.50;;;7.80;91.60;;;7.15;96.77;96225.66;5033155;28;20874;-80
2024/03/31 05:23:26;;;;;;;20.90;6.40;;;7.80;92.30;;;7.10;96.01;96229.03;5026316;28;20964;-80
2024/03/31 05:25:52;;;;;;;20.10;6.47;;;7.80;92.00;;;6.61;97.38;96165.75;5037824;28;20523;-80
2024/03/31 05:28:20;;;;;;;18.70;4.30;;;7.70;92.20;;;6.98;98.16;96230.97;5036342;28;20485;-80
2024/03/31 05:30:47;;;;;;;23.50;5.63;;;7.60;92.70;;;6.76;97.98;96202.84;5037672;28;20470;-80
2024/03/31 05:33:15;;;;;;;25.63;7.30;;;7.70;92.90;;;7.02;98.85;96242.84;5030078;28;20493;-80
2024/03/31 05:35:41;;;;;;;22.53;7.03;;;7.70;93.40;;;7.15;98.43;96236.41;5042152;28;20531;-80
2024/03/31 05:38:09;;;;;;;19.23;6.80;;;7.80;93.60;;;7.09;99.08;96244.34;5026943;28;20474;-79
2024/03/31 05:40:38;;;;;;;22.23;5.20;;;7.80;93.40;;;7.13;98.63;96235.81;5032615;28;20495;-79
2024/03/31 05:43:06;;;;;;;20.30;5.80;;;7.90;93.90;;;7.48;96.90;96251.03;5027286;28;20478;-80
2024/03/31 05:45:34;;;;;;;23.63;5.33;;;8.00;93.70;;;7.68;95.00;96239.84;5029131;28;20476;-79
2024/03/31 05:48:02;;;;;;;15.40;5.53;;;8.20;92.60;;;7.71;93.95;96222.44;5037695;28;20833;-79
2024/03/31 05:50:28;;;;;;;21.50;6.20;;;8.40;91.70;;;7.85;93.04;96229.13;5029221;28;20488;-79
2024/03/31 05:52:55;;;;;;;23.90;6.47;;;8.60;91.20;;;8.08;92.54;96244.34;5042494;28;20520;-80
2024/03/31 05:55:22;;;;;;;25.57;6.20;;;8.70;90.90;;;8.14;92.97;96247.94;5029958;28;20473;-80
2024/03/31 05:57:50;;;;;;;21.80;6.20;;;8.80;90.60;;;8.11;92.95;96226.88;5032744;28;20479;-80
2024/03/31 06:00:17;;;;;;;17.57;6.40;;;9.00;90.70;;;8.40;93.45;96242.94;5030873;28;20895;-80
2024/03/31 06:02:44;;;;;;;23.47;6.33;;;9.10;90.60;;;8.52;92.56;96236.69;5030387;28;20569;-79
2024/03/31 06:05:10;;;;;;;21.13;6.40;;;9.30;90.40;;;8.69;91.86;96242.88;5042546;28;20523;-81
2024/03/31 06:07:38;;;;;;;18.60;5.00;;;9.40;90.30;;;8.79;90.80;96253.81;5031628;28;20484;-79
2024/03/31 06:10:05;;;;;;;15.53;6.20;;;9.50;89.70;;;8.92;89.40;96254.53;5049933;28;20488;-82
2024/03/31 06:12:33;;;;;;;18.40;6.97;;;9.60;88.70;;;9.02;87.19;96251.97;5045789;28;20486;-80
2024/03/31 06:15:00;;;;;;;24.43;6.80;;;9.70;87.60;;;8.99;87.10;96248.97;5050420;28;20509;-83
2024/03/31 06:17:27;;;;;;;22.93;5.80;;;9.70;87.10;;;8.90;86.51;96248.56;5050639;28;20905;-78
2024/03/31 06:19:53;;;;;;;19.27;6.37;;;9.70;86.90;;;8.92;86.79;96263.41;5046162;28;20550;-81
2024/03/31 06:22:21;;;;;;;20.90;6.80;;;9.70;86.90;;;8.92;87.61;96259.91;5051173;28;20478;-83
2024/03/31 06:24:47;;;;;;;21.10;6.07;;;9.60;86.90;;;8.95;86.47;96259.41;5035956;28;20470;-81
2024/03/31 06:27:14;;;;;;;23.77;6.50;;;9.70;86.90;;;8.86;87.85;96242.03;5036537;28;20476;-81
2024/03/31 06:29:41;;;;;;;18.43;6.53;;;9.70;86.90;;;8.76;87.49;96269.63;5031245;28;20800;-81
2024/03/31 06:32:10;;;;;;;23.07;7.40;;;9.60;86.60;;;8.86;87.57;96279.72;5039975;28;21114;-81
2024/03/31 06:34:37;;;;;;;10.30;5.30;;;9.60;87.30;;;8.72;88.35;96255.88;5040686;28;20479;-78
2024/03/31 06:37:05;;;;;;;24.00;7.00;;;9.60;87.00;;;8.78;87.19;96267.50;5050308;28;20483;-82
2024/03/31 06:39:31;;;;;;;15.00;6.80;;;9.50;86.90;;;8.69;88.16;96269.00;5049533;28;20481;-80
2024/03/31 06:41:58;;;;;;;15.60;5.33;;;9.50;87.00;;;8.63;88.54;96268.09;5066593;28;20484;-79
2024/03/31 06:44:24;;;;;;;18.03;6.27;;;9.40;87.10;;;8.72;88.11;96258.56;5045770;28;21156;-84
2024/03/31 06:46:51;;;;;;;18.20;6.00;;;9.50;87.30;;;8.81;88.08;96272.41;5033019;28;20463;-83
2024/03/31 06:49:19;;;;;;;23.83;6.50;;;9.50;87.30;;;8.60;89.33;96257.84;5044132;28;20474;-81
2024/03/31 06:51:46;;;;;;;20.40;7.40;;;9.40;87.20;;;8.61;88.79;96256.78;5034452;28;20489;-81
2024/03/31 06:54:13;;;;;;;17.30;6.40;;;9.40;87.40;;;8.64;89.06;96267.88;5030239;28;20504;-83
2024/03/31 06:56:40;;;;;;;23.83;6.27;;;9.30;87.60;;;8.78;88.09;96262.13;5039907;28;20481;-83
2024/03/31 06:59:07;;;;;;;20.30;7.00;;;9.40;87.70;;;8.62;88.28;96259.19;5045969;28;20501;-82
2024/03/31 07:01:34;;;;;;;18.07;6.60;;;9.40;87.60;;;8.82;88.20;96279.44;5034911;28;20547;-81
2024/03/31 07:04:00;;;;;;;21.23;6.60;;;9.50;87.70;;;8.95;87.57;96275.56;5039564;28;20965;-82
2024/03/31 07:06:29;;;;;;;18.10;5.63;;;9.70;87.60;;;8.97;86.87;96280.72;5046507;28;20516;-82
2024/03/31 07:08:55;;;;;;;13.80;5.80;;;9.70;87.10;;;9.11;86.78;96286.56;5049523;28;20476;-80
2024/03/31 07:11:23;;;;;;;18.30;6.10;;;9.80;87.00;;;9.35;86.38;96282.59;5043469;28;20465;-82
2024/03/31 07:13:49;;;;;;;18.90;5.43;;;10.00;85.90;;;9.26;84.49;96257.13;5044245;28;20478;-82
2024/03/31 07:16:17;;;;;;;17.93;5.10;;;10.10;84.70;;;8.29;84.13;96115.50;5058999;28;20509;-81
2024/03/31 07:18:43;;;;;;;20.60;6.50;;;10.10;84.60;;;9.34;84.60;96270.16;5079718;28;20478;-80
2024/03/31 07:21:11;;;;;;;21.80;4.80;;;10.10;84.30;;;9.43;84.20;96278.63;5055964;28;20481;-80
2024/03/31 07:23:39;;;;;;;20.70;5.40;;;10.10;84.30;;;9.38;83.49;96248.09;5055796;28;20894;-80
2024/03/31 07:26:06;;;;;;;19.10;5.00;;;10.20;84.10;;;9.53;81.18;96193.53;5046156;28;20533;-80
2024/03/31 07:28:32;;;;;;;19.13;5.40;;;10.40;84.00;;;9.43;81.58;96219.34;5044052;28;20869;-81
2024/03/31 07:30:59;;;;;;;22.77;5.60;;;10.50;83.50;;;9.83;81.44;96282.06;5046486;28;20473;-83
2024/03/31 07:33:26;;;;;;;17.33;5.90;;;10.50;83.00;;;9.89;80.49;96270.25;5038701;28;20486;-80
2024/03/31 07:35:53;;;;;;;19.63;5.77;;;10.60;83.10;;;10.03;79.83;96277.94;5036767;28;20476;-82
2024/03/31 07:38:20;;;;;;;17.07;6.60;;;10.70;82.50;;;9.78;80.58;96279.28;5039266;28;20473;-84
2024/03/31 07:40:48;;;;;;;20.37;5.97;;;10.70;82.20;;;9.54;82.17;96273.34;5044747;28;20484;-82
2024/03/31 07:43:21;;;;;;;18.40;6.10;;;10.50;82.40;;;9.83;81.36;96273.97;5045690;28;20519;-81
2024/03/31 07:45:48;;;;;;;18.53;6.50;;;10.60;82.60;;;9.91;80.89;96261.91;5041637;28;20552;-81
2024/03/31 07:48:15;;;;;;;27.20;7.23;;;10.80;82.30;;;10.19;79.48;96258.13;5043033;28;20962;-81
2024/03/31 07:50:43;;;;;;;16.53;5.73;;;10.90;81.90;;;10.11;79.36;96258.59;5030355;28;20576;-82
2024/03/31 07:53:09;;;;;;;20.97;6.60;;;11.00;81.20;;;10.36;77.90;96246.38;5027030;28;20561;-83
2024/03/31 07:55:36;;;;;;;16.90;5.50;;;11.20;81.00;;;10.49;77.07;96251.38;5036878;28;20474;-82
2024/03/31 07:58:05;;;;;;;23.60;6.77;;;11.40;80.80;;;10.69;76.57;96239.13;5036496;28;20473;-79
2024/03/31 08:00:33;;;;;;;24.10;6.23;;;11.50;80.50;;;10.78;76.35;96231.34;5032726;28;21052;-81
2024/03/31 08:02:59;;;;;;;20.53;5.60;;;11.60;80.30;;;10.93;75.11;96238.72;5033753;28;20542;-83
2024/03/31 08:05:27;;;;;;;15.57;5.00;;;11.60;80.10;;;11.24;73.53;96238.06;5031974;28;20558;-81
2024/03/31 08:07:53;;;;;;;20.60;6.27;;;11.90;79.50;;;11.27;73.20;96243.75;5029585;28;20560;-81
2024/03/31 08:10:20;;;;;;;18.70;6.27;;;12.00;79.10;;;11.36;72.98;96232.44;5032516;28;21050;-83
2024/03/31 08:12:47;;;;;;;23.47;4.97;;;12.10;78.90;;;11.40;71.74;96225.41;5035895;28;20478;-80
2024/03/31 08:15:16;;;;;;;21.33;6.07;;;12.20;78.30;;;11.51;71.00;96227.09;5043224;28;20488;-83
2024/03/31 08:17:42;;;;;;;16.03;5.60;;;12.20;78.00;;;11.14;72.68;96219.88;5027641;28;20968;-79
2024/03/31 08:20:09;;;;;;;24.03;5.73;;;12.10;78.00;;;11.40;72.28;96220.00;5028062;28;20509;-81
2024/03/31 08:22:35;;;;;;;19.10;4.87;;;12.10;78.00;;;12.22;69.15;96213.19;5027965;28;20470;-82
2024/03/31 08:25:03;;;;;;;20.90;6.00;;;12.40;77.80;;;12.30;68.89;96208.03;5044532;28;20568;-82
2024/03/31 08:27:29;;;;;;;17.60;4.80;;;12.80;77.50;;;12.95;66.20;96212.00;5044803;28;20608;-81
2024/03/31 08:29:56;;;;;;;20.63;5.27;;;13.30;76.60;;;12.90;65.18;96187.63;5046093;28;20491;-80
2024/03/31 08:32:24;;;;;;;17.00;5.43;;;13.60;75.60;;;12.29;66.30;96167.69;5036764;28;20464;-81
2024/03/31 08:34:51;;;;;;;18.83;5.97;;;13.50;74.70;;;12.37;67.22;96213.19;5042282;28;20776;-82
2024/03/31 08:37:18;;;;;;;21.43;5.97;;;13.30;74.90;;;12.38;67.46;96211.28;5031419;28;20502;-81
2024/03/31 08:39:45;;;;;;;13.03;4.90;;;13.20;75.20;;;12.79;66.06;96211.25;5036841;28;20523;-82
2024/03/31 08:42:19;;;;;;;26.03;6.03;;;13.40;75.00;;;12.45;66.55;96206.41;5029723;28;20628;-80
2024/03/31 08:44:49;;;;;;;19.30;5.43;;;13.40;74.40;;;12.81;65.56;96208.25;5039119;28;20478;-84
2024/03/31 08:47:27;;;;;;;12.80;4.50;;;13.50;74.30;;;13.21;64.26;96195.66;5029272;28;20472;-82
2024/03/31 08:49:56;;;;;;;19.93;5.13;;;13.70;73.90;;;13.60;62.63;96197.69;5036027;28;20471;-83
2024/03/31 08:52:23;;;;;;;16.13;5.20;;;14.00;73.60;;;13.97;61.26;96194.75;5037234;28;20479;-82
2024/03/31 08:54:52;;;;;;;15.80;4.77;;;14.40;72.70;;;14.40;59.63;96183.28;5029186;28;20475;-82
2024/03/31 08:57:19;;;;;;;18.77;5.00;;;14.90;72.10;;;14.42;59.79;96195.50;5028997;28;20473;-82
2024/03/31 08:59:46;;;;;;;22.13;5.47;;;14.80;71.50;;;14.41;59.26;96180.28;5032971;28;20493;-84
2024/03/31 09:02:17;;;;;;;17.07;4.20;;;15.10;70.90;;;14.42;58.46;96181.91;5034009;28;20525;-82
2024/03/31 09:04:46;;;;;;;14.83;4.77;;;15.20;69.80;;;14.73;57.63;96178.94;5033571;28;20482;-80
2024/03/31 09:07:12;;;;;;;19.73;5.80;;;15.20;69.40;;;14.90;56.67;96169.53;5039468;28;20463;-81
2024/03/31 09:09:41;;;;;;;19.17;5.00;;;15.30;68.90;;;15.04;56.18;96166.13;5038719;28;20473;-81
2024/03/31 09:12:08;;;;;;;32.53;5.20;;;15.50;68.60;;;15.37;55.58;96169.78;5031687;28;20565;-81
2024/03/31 09:14:38;;;;;;;25.97;5.00;;;15.70;67.90;;;15.38;55.17;96160.53;5037898;28;20477;-83
2024/03/31 09:17:06;;;;;;;17.27;5.10;;;15.80;67.20;;;15.56;54.33;96167.09;5038412;28;20473;-84
2024/03/31 09:19:33;;;;;;;17.23;5.47;;;16.00;66.90;;;15.61;53.58;96179.81;5034536;28;20541;-83
2024/03/31 09:22:01;;;;;;;13.23;4.20;;;16.10;65.80;;;15.38;53.84;96148.81;5029258;28;20478;-83
2024/03/31 09:24:30;;;;;;;18.70;5.50;;;16.20;65.50;;;15.64;54.12;96194.75;5026041;28;20481;-80
2024/03/31 09:26:57;;;;;;;18.70;4.50;;;16.20;65.40;;;15.73;53.46;96198.47;5036239;28;21170;-82
2024/03/31 09:29:26;;;;;;;16.37;4.80;;;16.30;65.00;;;15.60;53.58;96199.19;5051742;28;20473;-81
2024/03/31 09:32:03;;;;;;;21.00;5.50;;;16.20;64.50;;;15.51;53.58;96188.94;5037520;28;20481;-81
2024/03/31 09:34:31;;;;;;;17.47;3.97;;;16.10;64.50;;;15.87;53.07;96190.34;5047130;28;20821;-81
2024/03/31 09:36:57;;;;;;;19.77;4.50;;;16.30;64.20;;;16.12;51.89;96185.66;5029728;28;20498;-82
2024/03/31 09:39:26;;;;;;;22.50;4.70;;;16.60;63.90;;;15.81;53.10;96192.34;5026687;28;20475;-81
2024/03/31 09:41:54;;;;;;;15.97;3.73;;;16.60;63.80;;;16.09;51.94;96184.34;5033647;28;20493;-81
2024/03/31 09:44:21;;;;;;;24.40;4.53;;;16.60;63.20;;;16.64;49.93;96182.09;5027958;28;20536;-81
2024/03/31 09:46:48;;;;;;;18.10;4.43;;;17.00;62.50;;;16.45;51.17;96173.97;5026843;28;20458;-82
2024/03/31 09:49:23;;;;;;;19.90;4.57;;;16.90;62.50;;;16.97;49.26;96177.41;5026727;28;20513;-80
2024/03/31 09:51:53;;;;;;;22.90;5.57;;;17.10;61.90;;;16.98;49.48;96179.00;5033129;28;20477;-82
2024/03/31 09:54:27;;;;;;;20.30;5.63;;;17.40;61.90;;;16.28;50.83;96176.16;5026897;28;20493;-81
2024/03/31 09:57:06;;;;;;;32.13;5.13;;;17.10;61.30;;;16.57;50.63;96187.94;5032628;28;20472;-82
2024/03/31 09:59:40;;;;;;;16.93;4.40;;;17.00;61.90;;;16.99;49.83;96183.38;5035627;28;20481;-79
2024/03/31 10:02:08;;;;;;;20.60;4.23;;;17.20;61.90;;;17.03;49.46;96171.84;5040193;28;21002;-81
2024/03/31 10:04:44;;;;;;;21.77;5.70;;;17.40;61.40;;;16.98;49.25;96167.28;5034881;28;20496;-82
2024/03/31 10:07:10;;;;;;;15.03;4.93;;;17.50;60.90;;;17.46;48.55;96168.81;5036451;28;20469;-84
2024/03/31 10:09:40;;;;;;;19.73;4.37;;;17.60;60.80;;;17.62;47.82;96172.03;5032758;28;20482;-84
2024/03/31 10:12:07;;;;;;;22.63;5.80;;;17.80;60.40;;;16.55;49.83;96173.78;5047186;28;20881;-83
2024/03/31 10:14:36;;;;;;;22.03;5.43;;;17.60;60.00;;;16.31;51.12;96166.56;5028663;28;21506;-84
2024/03/31 10:17:04;;;;;;;17.43;4.70;;;17.00;60.60;;;16.37;49.68;96119.03;5028626;28;20475;-83
2024/03/31 10:19:33;;;;;;;20.67;5.00;;;17.20;60.50;;;17.06;49.03;96165.78;5028465;28;20512;-82
2024/03/31 10:22:01;;;;;;;22.27;5.30;;;17.50;60.10;;;16.21;50.38;96175.69;5037719;28;20560;-82